Time;durP1;ratioP1;P1;durP2;ratioP2;P2;SDS_P1;SDS_P2;PMS_P1;PMS_P2;Temp;Humidity;BMP_temperature;BMP_pressure;BME280_temperature;BME280_humidity;BME280_pressure;Samples;Min_cycle;Max_cycle;Signal;HPM_P1;HPM_P2
2022/03/07 00:01:18;;;;;;;12.07;9.43;;;;;;;;;;5084212;28;20533;-67
2022/03/07 00:03:46;;;;;;;10.63;9.15;;;;;;;;;;5084277;28;20196;-67
2022/03/07 00:06:12;;;;;;;9.95;8.52;;;;;;;;;;5084030;28;20220;-67
2022/03/07 00:08:39;;;;;;;11.52;9.82;;;;;;;;;;5084494;28;20395;-67
2022/03/07 00:11:05;;;;;;;10.32;9.25;;;;;;;;;;5084051;28;20526;-67
2022/03/07 00:13:31;;;;;;;10.50;9.38;;;;;;;;;;5083796;28;20318;-67
2022/03/07 00:15:57;;;;;;;9.85;8.85;;;;;;;;;;5083995;28;20420;-67
2022/03/07 00:18:24;;;;;;;9.70;8.80;;;;;;;;;;5084035;28;20249;-67
2022/03/07 00:20:51;;;;;;;9.98;8.93;;;;;;;;;;5083936;28;20219;-67
2022/03/07 00:23:17;;;;;;;12.05;9.20;;;;;;;;;;5083853;28;20200;-67
2022/03/07 00:25:44;;;;;;;10.07;9.07;;;;;;;;;;5083721;28;20220;-67
2022/03/07 00:28:10;;;;;;;10.13;9.07;;;;;;;;;;5083321;28;20204;-67
2022/03/07 00:30:37;;;;;;;9.65;8.75;;;;;;;;;;5082618;28;20211;-67
2022/03/07 00:33:03;;;;;;;9.40;8.50;;;;;;;;;;5083712;28;20196;-67
2022/03/07 00:35:29;;;;;;;10.88;8.88;;;;;;;;;;5083632;28;20196;-67
2022/03/07 00:37:57;;;;;;;10.52;9.43;;;;;;;;;;5083410;28;20196;-67
2022/03/07 00:40:23;;;;;;;10.23;8.35;;;;;;;;;;5083375;28;20199;-67
2022/03/07 00:42:49;;;;;;;8.63;7.78;;;;;;;;;;5083165;28;20250;-67
2022/03/07 00:45:16;;;;;;;10.10;8.43;;;;;;;;;;5083474;28;20224;-67
2022/03/07 00:47:42;;;;;;;9.98;8.98;;;;;;;;;;5083315;28;20234;-67
2022/03/07 00:50:09;;;;;;;9.68;8.63;;;;;;;;;;5083354;28;20234;-67
2022/03/07 00:52:35;;;;;;;9.77;7.82;;;;;;;;;;5083157;28;20200;-67
2022/03/07 00:55:03;;;;;;;10.32;9.27;;;;;;;;;;5083161;28;20196;-67
2022/03/07 00:57:29;;;;;;;10.15;8.57;;;;;;;;;;5082854;28;20376;-67
2022/03/07 00:59:56;;;;;;;10.65;7.72;;;;;;;;;;5082931;28;20200;-67
2022/03/07 01:02:22;;;;;;;10.40;8.50;;;;;;;;;;5083164;28;20196;-67
2022/03/07 01:04:48;;;;;;;8.23;7.43;;;;;;;;;;5082975;28;20520;-67
2022/03/07 01:07:14;;;;;;;9.75;8.65;;;;;;;;;;5082953;28;20445;-67
2022/03/07 01:09:41;;;;;;;10.05;8.13;;;;;;;;;;5082834;28;20204;-66
2022/03/07 01:12:09;;;;;;;8.57;7.75;;;;;;;;;;5082648;28;20204;-67
2022/03/07 01:14:35;;;;;;;8.45;7.55;;;;;;;;;;5082929;28;20196;-67
2022/03/07 01:17:01;;;;;;;10.75;8.10;;;;;;;;;;5082705;28;20196;-67
2022/03/07 01:19:28;;;;;;;9.43;7.03;;;;;;;;;;5082727;28;20196;-67
2022/03/07 01:21:54;;;;;;;8.85;7.95;;;;;;;;;;5082749;28;20205;-67
2022/03/07 01:24:20;;;;;;;8.73;7.63;;;;;;;;;;5082581;28;20230;-67
2022/03/07 01:26:47;;;;;;;10.02;8.05;;;;;;;;;;5082192;28;20197;-67
2022/03/07 01:29:14;;;;;;;8.02;7.32;;;;;;;;;;5082623;28;20208;-67
2022/03/07 01:31:40;;;;;;;7.35;6.60;;;;;;;;;;5082639;28;20234;-66
2022/03/07 01:34:07;;;;;;;8.18;7.32;;;;;;;;;;5082505;28;20204;-67
2022/03/07 01:36:33;;;;;;;8.13;7.35;;;;;;;;;;5082273;28;20199;-66
2022/03/07 01:38:59;;;;;;;7.63;6.63;;;;;;;;;;5082275;28;20258;-66
2022/03/07 01:41:26;;;;;;;7.63;6.82;;;;;;;;;;5082206;28;20205;-67
2022/03/07 01:43:52;;;;;;;7.22;6.63;;;;;;;;;;5082547;28;20196;-67
2022/03/07 01:46:20;;;;;;;8.63;6.95;;;;;;;;;;5082212;28;20244;-67
2022/03/07 01:48:46;;;;;;;7.72;7.00;;;;;;;;;;5082342;28;20196;-67
2022/03/07 01:51:13;;;;;;;6.47;5.88;;;;;;;;;;5082293;28;20235;-67
2022/03/07 01:53:40;;;;;;;6.93;6.32;;;;;;;;;;5082157;28;20206;-67
2022/03/07 01:56:07;;;;;;;6.93;6.30;;;;;;;;;;5081875;28;20193;-67
2022/03/07 01:58:33;;;;;;;8.18;7.03;;;;;;;;;;5082283;28;20203;-67
2022/03/07 02:00:59;;;;;;;7.38;6.63;;;;;;;;;;5082110;28;20197;-67
2022/03/07 02:03:27;;;;;;;7.80;7.00;;;;;;;;;;5082140;28;20243;-67
2022/03/07 02:05:54;;;;;;;9.85;6.88;;;;;;;;;;5081980;28;20582;-67
2022/03/07 02:08:20;;;;;;;8.60;7.50;;;;;;;;;;5081896;28;20203;-67
2022/03/07 02:10:47;;;;;;;7.10;6.50;;;;;;;;;;5081818;28;20242;-67
2022/03/07 02:13:13;;;;;;;6.68;6.10;;;;;;;;;;5081766;28;20204;-67
2022/03/07 02:15:40;;;;;;;6.63;6.13;;;;;;;;;;5082313;28;20403;-67
2022/03/07 02:18:06;;;;;;;6.95;6.35;;;;;;;;;;5081849;28;20196;-67
2022/03/07 02:20:34;;;;;;;6.75;6.25;;;;;;;;;;5081983;28;20515;-67
2022/03/07 02:23:01;;;;;;;7.28;6.60;;;;;;;;;;5081799;28;20211;-67
2022/03/07 02:25:27;;;;;;;7.47;6.80;;;;;;;;;;5082011;28;20220;-67
2022/03/07 02:27:54;;;;;;;8.30;7.30;;;;;;;;;;5081808;28;20196;-67
2022/03/07 02:30:20;;;;;;;7.65;6.88;;;;;;;;;;5081728;28;20196;-67
2022/03/07 02:32:46;;;;;;;9.98;6.78;;;;;;;;;;5081725;28;20196;-67
2022/03/07 02:35:13;;;;;;;7.57;6.80;;;;;;;;;;5081768;28;20202;-67
2022/03/07 02:37:39;;;;;;;8.13;6.63;;;;;;;;;;5081630;28;20200;-67
2022/03/07 02:40:08;;;;;;;8.10;6.90;;;;;;;;;;5081919;28;20196;-67
2022/03/07 02:42:34;;;;;;;7.50;6.65;;;;;;;;;;5081760;28;20211;-67
2022/03/07 02:45:00;;;;;;;10.43;7.13;;;;;;;;;;5081725;28;20216;-67
2022/03/07 02:47:26;;;;;;;7.82;6.53;;;;;;;;;;5081574;28;20203;-67
2022/03/07 02:49:53;;;;;;;7.53;6.80;;;;;;;;;;5081495;28;20234;-67
2022/03/07 02:52:19;;;;;;;7.40;6.80;;;;;;;;;;5081843;28;20204;-67
2022/03/07 02:54:45;;;;;;;8.45;7.15;;;;;;;;;;5085426;28;20200;-67
2022/03/07 02:57:13;;;;;;;7.53;6.82;;;;;;;;;;5085251;28;20234;-67
2022/03/07 02:59:39;;;;;;;7.43;6.72;;;;;;;;;;5085233;28;20386;-66
2022/03/07 03:02:05;;;;;;;10.52;7.10;;;;;;;;;;5085499;28;20514;-66
2022/03/07 03:04:33;;;;;;;7.35;6.68;;;;;;;;;;5085584;28;20549;-66
2022/03/07 03:07:00;;;;;;;8.10;7.30;;;;;;;;;;5084965;28;20220;-66
2022/03/07 03:09:26;;;;;;;6.88;6.28;;;;;;;;;;5085159;28;20519;-66
2022/03/07 03:11:52;;;;;;;8.32;7.55;;;;;;;;;;5084993;28;20286;-66
2022/03/07 03:14:20;;;;;;;8.52;7.28;;;;;;;;;;5084969;28;20234;-66
2022/03/07 03:16:46;;;;;;;7.85;7.10;;;;;;;;;;5084986;28;20192;-66
2022/03/07 03:19:12;;;;;;;8.50;7.70;;;;;;;;;;5085162;28;20207;-66
2022/03/07 03:21:40;;;;;;;8.13;7.43;;;;;;;;;;5085042;28;20267;-67
2022/03/07 03:24:06;;;;;;;10.98;7.28;;;;;;;;;;5084894;28;20242;-66
2022/03/07 03:26:32;;;;;;;8.32;7.50;;;;;;;;;;5084603;28;20250;-66
2022/03/07 03:28:59;;;;;;;9.13;8.05;;;;;;;;;;5084785;28;20242;-67
2022/03/07 03:31:26;;;;;;;8.73;7.93;;;;;;;;;;5084973;28;20196;-67
2022/03/07 03:33:53;;;;;;;8.30;7.50;;;;;;;;;;5084733;28;20200;-67
2022/03/07 03:36:19;;;;;;;8.43;7.65;;;;;;;;;;5084645;28;20456;-67
2022/03/07 03:38:45;;;;;;;9.05;8.23;;;;;;;;;;5084602;28;20196;-67
2022/03/07 03:41:11;;;;;;;9.70;8.70;;;;;;;;;;5084488;28;20200;-67
2022/03/07 03:43:38;;;;;;;8.68;7.88;;;;;;;;;;5084790;28;20253;-66
2022/03/07 03:46:04;;;;;;;8.48;7.68;;;;;;;;;;5084413;28;20215;-66
2022/03/07 03:48:32;;;;;;;7.97;7.18;;;;;;;;;;5084576;28;20196;-67
2022/03/07 03:50:58;;;;;;;8.68;7.75;;;;;;;;;;5084439;28;20235;-67
2022/03/07 03:53:24;;;;;;;9.27;8.20;;;;;;;;;;5084383;28;20196;-67
2022/03/07 03:55:51;;;;;;;10.13;8.02;;;;;;;;;;5084355;28;20423;-67
2022/03/07 03:58:17;;;;;;;8.40;7.60;;;;;;;;;;5084226;28;20196;-67
2022/03/07 04:00:43;;;;;;;9.18;8.18;;;;;;;;;;5084697;28;20196;-67
2022/03/07 04:03:09;;;;;;;7.88;7.10;;;;;;;;;;5084125;28;20249;-67
2022/03/07 04:05:37;;;;;;;11.07;7.80;;;;;;;;;;5084208;28;20224;-67
2022/03/07 04:08:03;;;;;;;7.90;7.20;;;;;;;;;;5083830;28;20197;-67
2022/03/07 04:10:30;;;;;;;8.85;8.02;;;;;;;;;;5084018;28;20200;-67
2022/03/07 04:12:56;;;;;;;9.73;7.60;;;;;;;;;;5083932;28;20276;-67
2022/03/07 04:15:22;;;;;;;11.30;8.15;;;;;;;;;;5084271;28;20246;-67
2022/03/07 04:17:49;;;;;;;8.73;7.93;;;;;;;;;;5083843;28;20234;-67
2022/03/07 04:20:15;;;;;;;8.95;8.05;;;;;;;;;;5083977;28;20200;-67
2022/03/07 04:22:43;;;;;;;7.90;7.20;;;;;;;;;;5083710;28;20234;-67
2022/03/07 04:25:10;;;;;;;8.95;8.15;;;;;;;;;;5083663;28;20246;-67
2022/03/07 04:27:36;;;;;;;8.88;7.90;;;;;;;;;;5083524;28;20197;-67
2022/03/07 04:30:04;;;;;;;9.05;8.25;;;;;;;;;;5083857;28;20504;-67
2022/03/07 04:32:30;;;;;;;8.88;8.10;;;;;;;;;;5083672;28;20415;-66
2022/03/07 04:34:56;;;;;;;10.82;9.20;;;;;;;;;;5083622;28;20203;-66
2022/03/07 04:37:22;;;;;;;9.20;8.30;;;;;;;;;;5083145;28;20192;-67
2022/03/07 04:39:50;;;;;;;11.18;8.60;;;;;;;;;;5083348;28;20211;-67
2022/03/07 04:42:16;;;;;;;9.55;8.55;;;;;;;;;;5083443;28;20203;-67
2022/03/07 04:44:43;;;;;;;10.07;9.00;;;;;;;;;;5083574;28;20557;-67
2022/03/07 04:47:09;;;;;;;11.23;9.05;;;;;;;;;;5082953;28;20220;-67
2022/03/07 04:49:36;;;;;;;10.20;9.20;;;;;;;;;;5083275;28;20197;-67
2022/03/07 04:52:02;;;;;;;10.05;8.15;;;;;;;;;;5083050;28;20196;-66
2022/03/07 04:54:28;;;;;;;9.55;8.60;;;;;;;;;;5083381;28;20294;-67
2022/03/07 04:56:56;;;;;;;10.88;9.77;;;;;;;;;;5083090;28;20192;-67
2022/03/07 04:59:22;;;;;;;11.52;9.77;;;;;;;;;;5083343;28;20267;-66
2022/03/07 05:01:49;;;;;;;11.32;9.38;;;;;;;;;;5083134;28;20200;-67
2022/03/07 05:04:15;;;;;;;10.75;9.75;;;;;;;;;;5083053;28;20231;-66
2022/03/07 05:06:41;;;;;;;10.27;9.27;;;;;;;;;;5082503;28;20258;-66
2022/03/07 05:09:07;;;;;;;11.95;9.63;;;;;;;;;;5082947;28;20302;-66
2022/03/07 05:11:34;;;;;;;12.10;9.23;;;;;;;;;;5083018;28;20404;-65
2022/03/07 05:14:01;;;;;;;11.70;10.38;;;;;;;;;;5082983;28;20429;-66
2022/03/07 05:16:27;;;;;;;15.50;9.77;;;;;;;;;;5082060;28;20322;-65
2022/03/07 05:18:54;;;;;;;11.07;9.82;;;;;;;;;;5082799;28;20424;-65
2022/03/07 05:21:20;;;;;;;10.68;9.45;;;;;;;;;;5082524;28;20200;-66
2022/03/07 05:23:46;;;;;;;10.90;8.93;;;;;;;;;;5082666;28;20507;-68
2022/03/07 05:26:12;;;;;;;13.32;9.50;;;;;;;;;;5082510;28;20223;-65
2022/03/07 05:28:39;;;;;;;12.48;9.32;;;;;;;;;;5082548;28;20196;-65
2022/03/07 05:31:09;;;;;;;11.73;9.90;;;;;;;;;;5082578;28;20549;-66
2022/03/07 05:33:35;;;;;;;12.25;10.07;;;;;;;;;;5082401;28;20231;-67
2022/03/07 05:36:01;;;;;;;11.07;9.95;;;;;;;;;;5082233;28;20200;-67
2022/03/07 05:38:27;;;;;;;11.63;9.90;;;;;;;;;;5082495;28;20499;-66
2022/03/07 05:40:53;;;;;;;11.93;10.68;;;;;;;;;;5082392;28;20197;-66
2022/03/07 05:43:20;;;;;;;17.55;13.10;;;;;;;;;;5082204;28;20204;-66
2022/03/07 05:45:46;;;;;;;17.13;11.15;;;;;;;;;;5082246;28;20277;-66
2022/03/07 05:48:14;;;;;;;18.95;13.13;;;;;;;;;;5081990;28;20197;-66
2022/03/07 05:50:41;;;;;;;19.70;13.48;;;;;;;;;;5082219;28;20204;-66
2022/03/07 05:53:07;;;;;;;20.25;14.07;;;;;;;;;;5082098;28;20495;-66
2022/03/07 05:55:33;;;;;;;18.33;13.25;;;;;;;;;;5082153;28;20208;-66
2022/03/07 05:58:00;;;;;;;17.67;12.43;;;;;;;;;;5081983;28;20517;-66
2022/03/07 06:00:27;;;;;;;12.93;10.60;;;;;;;;;;5082606;28;20514;-66
2022/03/07 06:02:53;;;;;;;12.68;11.32;;;;;;;;;;5082394;28;20197;-66
2022/03/07 06:05:21;;;;;;;12.90;10.73;;;;;;;;;;5082132;28;20411;-66
2022/03/07 06:07:47;;;;;;;15.63;10.75;;;;;;;;;;5081536;28;20220;-66
2022/03/07 06:10:14;;;;;;;11.57;9.95;;;;;;;;;;5082202;28;20200;-66
2022/03/07 06:12:40;;;;;;;15.00;10.55;;;;;;;;;;5081994;28;20434;-59
2022/03/07 06:15:07;;;;;;;15.32;10.15;;;;;;;;;;5077313;28;20266;-59
2022/03/07 06:17:33;;;;;;;11.68;10.38;;;;;;;;;;5069407;28;20210;-57
2022/03/07 06:20:00;;;;;;;11.90;9.35;;;;;;;;;;5073955;28;20571;-58
2022/03/07 06:22:27;;;;;;;10.77;9.32;;;;;;;;;;5075945;28;20231;-57
2022/03/07 06:24:54;;;;;;;10.50;9.40;;;;;;;;;;5076528;28;20424;-58
2022/03/07 06:27:20;;;;;;;11.45;10.25;;;;;;;;;;5077763;28;20847;-57
2022/03/07 06:29:46;;;;;;;12.60;9.75;;;;;;;;;;5080202;28;20216;-57
2022/03/07 06:32:12;;;;;;;11.65;9.55;;;;;;;;;;5079884;28;20231;-58
2022/03/07 06:34:38;;;;;;;11.00;9.77;;;;;;;;;;5080306;28;20209;-58
2022/03/07 06:37:05;;;;;;;11.48;9.25;;;;;;;;;;5079620;28;20420;-58
2022/03/07 06:39:32;;;;;;;15.18;9.75;;;;;;;;;;5079782;28;20418;-58
2022/03/07 06:41:59;;;;;;;11.13;9.85;;;;;;;;;;5080045;28;20470;-58
2022/03/07 06:44:25;;;;;;;10.23;9.23;;;;;;;;;;5080156;28;20215;-57
2022/03/07 06:46:51;;;;;;;11.20;9.98;;;;;;;;;;5079695;28;20465;-57
2022/03/07 06:49:17;;;;;;;13.45;10.20;;;;;;;;;;5080328;28;20208;-58
2022/03/07 06:51:43;;;;;;;10.98;9.88;;;;;;;;;;5080628;28;20382;-56
2022/03/07 06:54:10;;;;;;;12.20;10.35;;;;;;;;;;5080132;28;20209;-58
2022/03/07 06:56:38;;;;;;;16.02;11.27;;;;;;;;;;5079656;28;20250;-57
2022/03/07 06:59:04;;;;;;;12.80;10.77;;;;;;;;;;5079726;28;20200;-58
2022/03/07 07:01:30;;;;;;;11.60;9.98;;;;;;;;;;5080178;28;20254;-58
2022/03/07 07:03:56;;;;;;;16.48;10.77;;;;;;;;;;5080221;28;20222;-58
2022/03/07 07:06:23;;;;;;;12.05;9.93;;;;;;;;;;5078608;28;20536;-58
2022/03/07 07:08:49;;;;;;;11.25;10.05;;;;;;;;;;5079830;28;20206;-56
2022/03/07 07:11:15;;;;;;;12.27;10.52;;;;;;;;;;5080009;28;20208;-58
2022/03/07 07:13:43;;;;;;;12.00;9.85;;;;;;;;;;5080222;28;20535;-58
2022/03/07 07:16:09;;;;;;;12.25;10.02;;;;;;;;;;5080162;28;20557;-58
2022/03/07 07:18:35;;;;;;;10.52;9.25;;;;;;;;;;5080334;28;20208;-58
2022/03/07 07:21:02;;;;;;;11.98;10.73;;;;;;;;;;5079918;28;20540;-58
2022/03/07 07:23:28;;;;;;;13.85;10.65;;;;;;;;;;5079597;28;20208;-56
2022/03/07 07:25:55;;;;;;;12.70;9.55;;;;;;;;;;5079550;28;20408;-58
2022/03/07 07:28:21;;;;;;;11.50;9.73;;;;;;;;;;5079370;28;20216;-58
2022/03/07 07:30:49;;;;;;;10.82;9.73;;;;;;;;;;5079854;28;20523;-57
2022/03/07 07:33:15;;;;;;;10.88;9.23;;;;;;;;;;5079669;28;20215;-58
2022/03/07 07:35:41;;;;;;;11.98;9.10;;;;;;;;;;5079408;28;20531;-57
2022/03/07 07:38:08;;;;;;;10.45;9.45;;;;;;;;;;5078223;28;20403;-57
2022/03/07 07:40:34;;;;;;;10.23;9.27;;;;;;;;;;5079317;28;20523;-58
2022/03/07 07:43:01;;;;;;;10.25;9.25;;;;;;;;;;5079074;28;20346;-57
2022/03/07 07:45:27;;;;;;;11.48;8.90;;;;;;;;;;5079305;28;20212;-57
2022/03/07 07:47:54;;;;;;;11.05;9.80;;;;;;;;;;5071151;28;20229;-58
2022/03/07 07:50:21;;;;;;;11.30;9.70;;;;;;;;;;5059111;28;20213;-58
2022/03/07 07:52:47;;;;;;;10.75;9.55;;;;;;;;;;5059140;28;20251;-57
2022/03/07 07:55:13;;;;;;;11.32;10.18;;;;;;;;;;5059058;28;20217;-58
2022/03/07 07:57:40;;;;;;;10.95;9.50;;;;;;;;;;5058140;28;20343;-56
2022/03/07 08:00:08;;;;;;;10.20;9.10;;;;;;;;;;5059042;28;20221;-58
2022/03/07 08:02:34;;;;;;;11.13;9.93;;;;;;;;;;5058655;28;20213;-58
2022/03/07 08:05:02;;;;;;;10.75;9.02;;;;;;;;;;5058648;28;20225;-59
2022/03/07 08:07:28;;;;;;;10.82;9.73;;;;;;;;;;5058285;28;20458;-59
2022/03/07 08:09:55;;;;;;;13.15;10.23;;;;;;;;;;5061622;28;20489;-57
2022/03/07 08:12:21;;;;;;;10.52;9.43;;;;;;;;;;5075596;28;20220;-58
2022/03/07 08:14:47;;;;;;;12.02;9.55;;;;;;;;;;5078894;28;20277;-59
2022/03/07 08:17:15;;;;;;;10.20;9.20;;;;;;;;;;5077931;28;20435;-59
2022/03/07 08:19:41;;;;;;;10.30;9.20;;;;;;;;;;5078874;28;20642;-57
2022/03/07 08:22:09;;;;;;;10.75;9.68;;;;;;;;;;5078598;28;20208;-59
2022/03/07 08:24:35;;;;;;;11.77;9.75;;;;;;;;;;5078580;28;20216;-58
2022/03/07 08:27:01;;;;;;;14.38;10.00;;;;;;;;;;5077875;28;20427;-58
2022/03/07 08:29:27;;;;;;;11.57;9.40;;;;;;;;;;5078333;28;20208;-58
2022/03/07 08:31:54;;;;;;;11.18;9.93;;;;;;;;;;5078599;28;20472;-60
2022/03/07 08:34:20;;;;;;;10.27;9.13;;;;;;;;;;5078253;28;20456;-57
2022/03/07 08:36:46;;;;;;;12.05;9.57;;;;;;;;;;5077754;28;20205;-59
2022/03/07 08:39:14;;;;;;;11.23;10.02;;;;;;;;;;5077696;28;20249;-60
2022/03/07 08:41:40;;;;;;;10.38;9.38;;;;;;;;;;5078127;28;20201;-60
2022/03/07 08:44:06;;;;;;;11.50;9.75;;;;;;;;;;5078080;28;20208;-59
2022/03/07 08:46:32;;;;;;;12.38;9.48;;;;;;;;;;5077722;28;20200;-59
2022/03/07 08:48:59;;;;;;;12.27;9.80;;;;;;;;;;5077987;28;20492;-59
2022/03/07 08:51:25;;;;;;;11.35;9.70;;;;;;;;;;5077297;28;20212;-58
2022/03/07 08:53:51;;;;;;;11.15;9.13;;;;;;;;;;5077813;28;20495;-59
2022/03/07 08:56:19;;;;;;;11.05;9.80;;;;;;;;;;5077483;28;20212;-59
2022/03/07 08:58:45;;;;;;;11.45;9.82;;;;;;;;;;5078196;28;20213;-59
2022/03/07 09:01:11;;;;;;;10.98;9.88;;;;;;;;;;5077426;28;20411;-59
2022/03/07 09:03:38;;;;;;;13.35;9.98;;;;;;;;;;5077851;28;20239;-59
2022/03/07 09:06:04;;;;;;;11.45;10.25;;;;;;;;;;5077106;28;20255;-58
2022/03/07 09:08:30;;;;;;;11.73;10.13;;;;;;;;;;5076273;28;20228;-58
2022/03/07 09:10:56;;;;;;;11.70;9.75;;;;;;;;;;5077621;28;20266;-59
2022/03/07 09:13:24;;;;;;;14.23;10.32;;;;;;;;;;5077101;28;20539;-59
2022/03/07 09:15:52;;;;;;;12.02;9.75;;;;;;;;;;5077611;28;20208;-58
2022/03/07 09:18:20;;;;;;;12.25;10.10;;;;;;;;;;5076657;28;20271;-60
2022/03/07 09:20:46;;;;;;;10.88;9.77;;;;;;;;;;5077316;28;20424;-59
2022/03/07 09:23:12;;;;;;;10.55;9.55;;;;;;;;;;5077616;28;20265;-59
2022/03/07 09:25:45;;;;;;;11.45;9.70;;;;;;;;;;5077422;28;20212;-59
2022/03/07 09:28:11;;;;;;;12.60;9.98;;;;;;;;;;5076486;28;20396;-60
2022/03/07 09:30:39;;;;;;;11.18;9.65;;;;;;;;;;5077171;28;20216;-58
2022/03/07 09:33:05;;;;;;;11.15;10.02;;;;;;;;;;5077288;28;20208;-59
2022/03/07 09:35:32;;;;;;;12.70;10.27;;;;;;;;;;5076812;28;20501;-60
2022/03/07 09:37:58;;;;;;;10.90;9.80;;;;;;;;;;5076461;28;20204;-59
2022/03/07 09:40:25;;;;;;;11.07;9.95;;;;;;;;;;5076098;28;20216;-58
2022/03/07 09:42:51;;;;;;;11.65;10.02;;;;;;;;;;5077074;28;20219;-59
2022/03/07 09:45:18;;;;;;;12.23;9.75;;;;;;;;;;5076863;28;20516;-58
2022/03/07 09:47:47;;;;;;;10.70;9.60;;;;;;;;;;5076382;28;20220;-59
2022/03/07 09:50:13;;;;;;;11.73;10.50;;;;;;;;;;5076864;28;20678;-59
2022/03/07 09:52:39;;;;;;;11.90;10.30;;;;;;;;;;5077216;28;20208;-59
2022/03/07 09:55:07;;;;;;;11.73;10.52;;;;;;;;;;5077117;28;20307;-59
2022/03/07 09:57:33;;;;;;;10.70;9.60;;;;;;;;;;5076337;28;20205;-59
2022/03/07 10:00:00;;;;;;;10.48;9.38;;;;;;;;;;5077067;28;20564;-59
2022/03/07 10:02:26;;;;;;;11.93;10.27;;;;;;;;;;5076414;28;20208;-59
2022/03/07 10:04:54;;;;;;;10.07;9.07;;;;;;;;;;5076961;28;20208;-59
2022/03/07 10:07:20;;;;;;;11.68;10.07;;;;;;;;;;5076372;28;20280;-58
2022/03/07 10:09:47;;;;;;;10.88;9.73;;;;;;;;;;5076514;28;20338;-60
2022/03/07 10:12:13;;;;;;;11.65;9.93;;;;;;;;;;5075511;28;20235;-60
2022/03/07 10:14:44;;;;;;;11.27;9.93;;;;;;;;;;5076429;28;20216;-60
2022/03/07 10:17:17;;;;;;;10.57;9.48;;;;;;;;;;5075949;28;20208;-58
2022/03/07 10:19:43;;;;;;;12.00;10.70;;;;;;;;;;5076620;28;20253;-59
2022/03/07 10:22:13;;;;;;;13.65;11.07;;;;;;;;;;5076505;28;20208;-59
2022/03/07 10:24:40;;;;;;;11.32;9.75;;;;;;;;;;5060564;28;20227;-59
2022/03/07 10:27:06;;;;;;;11.27;10.07;;;;;;;;;;5056159;28;20229;-60
2022/03/07 10:29:32;;;;;;;11.85;9.90;;;;;;;;;;5056433;28;20213;-60
2022/03/07 10:31:59;;;;;;;12.85;10.25;;;;;;;;;;5056447;28;20506;-60
2022/03/07 10:34:26;;;;;;;10.52;9.30;;;;;;;;;;5056764;28;20453;-59
2022/03/07 10:36:53;;;;;;;12.95;9.38;;;;;;;;;;5074319;28;20212;-59
2022/03/07 10:39:24;;;;;;;11.60;10.40;;;;;;;;;;5076340;28;20208;-59
2022/03/07 10:41:51;;;;;;;12.30;10.18;;;;;;;;;;5076473;28;20447;-59
2022/03/07 10:44:24;;;;;;;10.75;9.68;;;;;;;;;;5076370;28;20212;-59
2022/03/07 10:46:50;;;;;;;11.90;10.57;;;;;;;;;;5076054;28;20418;-58
2022/03/07 10:49:17;;;;;;;12.35;10.52;;;;;;;;;;5076167;28;20228;-60
2022/03/07 10:51:51;;;;;;;13.45;10.80;;;;;;;;;;5076568;28;20543;-59
2022/03/07 10:54:19;;;;;;;11.77;10.13;;;;;;;;;;5076234;28;20204;-59
2022/03/07 10:56:52;;;;;;;10.45;9.35;;;;;;;;;;5075907;28;20209;-58
2022/03/07 10:59:28;;;;;;;10.68;9.45;;;;;;;;;;5076148;28;20208;-60
2022/03/07 11:01:58;;;;;;;11.52;10.15;;;;;;;;;;5076464;28;20215;-58
2022/03/07 11:04:25;;;;;;;11.40;10.02;;;;;;;;;;5076609;28;20209;-58
2022/03/07 11:06:51;;;;;;;10.75;9.65;;;;;;;;;;5075499;28;20228;-60
2022/03/07 11:09:18;;;;;;;11.20;10.05;;;;;;;;;;5075427;28;20228;-57
2022/03/07 11:11:44;;;;;;;15.82;10.18;;;;;;;;;;5075724;28;20220;-58
2022/03/07 11:14:12;;;;;;;11.13;9.82;;;;;;;;;;5077866;28;20211;-57
2022/03/07 11:16:39;;;;;;;11.23;10.02;;;;;;;;;;5078942;28;20216;-58
2022/03/07 11:19:07;;;;;;;10.40;9.43;;;;;;;;;;5079747;28;20230;-59
2022/03/07 11:21:33;;;;;;;12.32;10.30;;;;;;;;;;5079385;28;20650;-61
2022/03/07 11:23:59;;;;;;;12.45;10.38;;;;;;;;;;5079242;28;20208;-60
2022/03/07 11:26:26;;;;;;;10.98;9.85;;;;;;;;;;5078989;28;20208;-61
2022/03/07 11:28:53;;;;;;;11.45;10.25;;;;;;;;;;5078770;28;20252;-61
2022/03/07 11:31:21;;;;;;;11.75;10.52;;;;;;;;;;5079665;28;20240;-61
2022/03/07 11:33:50;;;;;;;11.88;10.25;;;;;;;;;;5079876;28;20219;-60
2022/03/07 11:36:17;;;;;;;11.48;10.23;;;;;;;;;;5078545;28;20216;-60
2022/03/07 11:38:50;;;;;;;10.75;9.68;;;;;;;;;;5078337;28;20204;-61
2022/03/07 11:41:22;;;;;;;12.30;10.10;;;;;;;;;;5080346;28;20250;-60
2022/03/07 11:43:49;;;;;;;13.55;9.55;;;;;;;;;;5079088;28;20270;-60
2022/03/07 11:46:22;;;;;;;13.35;9.45;;;;;;;;;;5078304;28;20613;-60
2022/03/07 11:48:48;;;;;;;10.60;9.60;;;;;;;;;;5078059;28;20221;-59
2022/03/07 11:51:19;;;;;;;10.73;9.63;;;;;;;;;;5078909;28;20515;-60
2022/03/07 11:53:45;;;;;;;10.38;9.25;;;;;;;;;;5078419;28;20212;-58
2022/03/07 11:56:16;;;;;;;11.05;9.35;;;;;;;;;;5078233;28;20216;-58
2022/03/07 11:58:48;;;;;;;10.02;9.07;;;;;;;;;;5078551;28;20204;-57
2022/03/07 12:01:14;;;;;;;10.35;9.20;;;;;;;;;;5077833;28;20253;-57
2022/03/07 12:03:42;;;;;;;11.82;9.82;;;;;;;;;;5089992;28;20479;-58
2022/03/07 12:06:10;;;;;;;16.40;9.32;;;;;;;;;;5098373;28;20226;-58
2022/03/07 12:08:43;;;;;;;9.77;8.77;;;;;;;;;;5097689;28;20215;-58
2022/03/07 12:11:10;;;;;;;10.82;9.52;;;;;;;;;;5084810;28;20208;-59
2022/03/07 12:13:46;;;;;;;10.48;9.38;;;;;;;;;;5078283;28;20373;-59
2022/03/07 12:16:12;;;;;;;10.63;9.52;;;;;;;;;;5078060;28;20230;-59
2022/03/07 12:18:38;;;;;;;9.40;8.40;;;;;;;;;;5077633;28;20242;-57
2022/03/07 12:21:06;;;;;;;9.77;8.88;;;;;;;;;;5078032;28;20246;-59
2022/03/07 12:23:34;;;;;;;9.55;8.65;;;;;;;;;;5077699;28;20261;-60
2022/03/07 12:26:02;;;;;;;10.40;9.50;;;;;;;;;;5077294;28;20279;-58
2022/03/07 12:28:29;;;;;;;11.23;9.82;;;;;;;;;;5077172;28;20278;-59
2022/03/07 12:30:55;;;;;;;33.00;10.77;;;;;;;;;;5077884;28;20236;-58
2022/03/07 12:33:22;;;;;;;27.50;10.00;;;;;;;;;;5078533;28;20532;-59
2022/03/07 12:35:48;;;;;;;10.05;9.02;;;;;;;;;;5077615;28;20277;-59
2022/03/07 12:38:16;;;;;;;9.93;8.93;;;;;;;;;;5077292;28;20204;-59
2022/03/07 12:40:42;;;;;;;10.00;9.07;;;;;;;;;;5077456;28;20242;-59
2022/03/07 12:43:09;;;;;;;10.38;9.38;;;;;;;;;;5078389;28;20208;-59
2022/03/07 12:45:44;;;;;;;9.82;8.80;;;;;;;;;;5077967;28;20215;-58
2022/03/07 12:48:10;;;;;;;9.98;8.98;;;;;;;;;;5076187;28;20547;-59
2022/03/07 12:50:37;;;;;;;9.73;8.85;;;;;;;;;;5077960;28;20212;-60
2022/03/07 12:53:03;;;;;;;11.27;9.32;;;;;;;;;;5077975;28;20215;-59
2022/03/07 12:55:31;;;;;;;10.30;9.30;;;;;;;;;;5077852;28;20209;-59
2022/03/07 12:57:57;;;;;;;9.88;8.88;;;;;;;;;;5077491;28;20251;-59
2022/03/07 13:00:24;;;;;;;9.70;8.68;;;;;;;;;;5078638;28;20246;-57
2022/03/07 13:02:51;;;;;;;9.80;8.85;;;;;;;;;;5078053;28;20274;-60
2022/03/07 13:05:18;;;;;;;9.95;9.00;;;;;;;;;;5077716;28;20285;-60
2022/03/07 13:07:53;;;;;;;9.77;8.88;;;;;;;;;;5077119;28;20242;-59
2022/03/07 13:10:21;;;;;;;9.55;8.35;;;;;;;;;;5077797;28;20584;-57
2022/03/07 13:12:48;;;;;;;10.07;8.77;;;;;;;;;;5077214;28;20220;-58
2022/03/07 13:15:14;;;;;;;10.10;9.10;;;;;;;;;;5077643;28;20212;-59
2022/03/07 13:17:41;;;;;;;10.02;9.13;;;;;;;;;;5076853;28;20213;-58
2022/03/07 13:20:10;;;;;;;9.70;8.68;;;;;;;;;;5077302;28;20208;-59
2022/03/07 13:22:36;;;;;;;11.38;9.20;;;;;;;;;;5077204;28;20212;-58
2022/03/07 13:25:04;;;;;;;11.80;8.73;;;;;;;;;;5076945;28;20246;-59
2022/03/07 13:27:31;;;;;;;10.25;9.25;;;;;;;;;;5077200;28;20299;-58
2022/03/07 13:30:06;;;;;;;12.90;9.25;;;;;;;;;;5077041;28;20235;-58
2022/03/07 13:32:37;;;;;;;9.07;8.27;;;;;;;;;;5077728;28;20208;-59
2022/03/07 13:35:04;;;;;;;13.93;9.13;;;;;;;;;;5076812;28;20539;-59
2022/03/07 13:37:40;;;;;;;10.35;9.35;;;;;;;;;;5076310;28;20246;-58
2022/03/07 13:40:07;;;;;;;9.52;8.63;;;;;;;;;;5076988;28;20208;-59
2022/03/07 13:42:34;;;;;;;10.05;9.15;;;;;;;;;;5076999;28;20208;-59
2022/03/07 13:45:01;;;;;;;9.15;8.32;;;;;;;;;;5077044;28;20209;-58
2022/03/07 13:47:29;;;;;;;9.68;8.80;;;;;;;;;;5075253;28;20254;-59
2022/03/07 13:49:56;;;;;;;10.00;9.07;;;;;;;;;;5076986;28;20228;-58
2022/03/07 13:52:23;;;;;;;9.77;8.68;;;;;;;;;;5076770;28;20504;-58
2022/03/07 13:54:50;;;;;;;9.75;8.90;;;;;;;;;;5077062;28;20381;-58
2022/03/07 13:57:17;;;;;;;9.68;8.85;;;;;;;;;;5076226;28;20215;-58
2022/03/07 13:59:54;;;;;;;10.25;8.68;;;;;;;;;;5076484;28;20204;-59
2022/03/07 14:02:20;;;;;;;10.77;8.80;;;;;;;;;;5076988;28;20208;-58
2022/03/07 14:04:56;;;;;;;12.43;9.27;;;;;;;;;;5076682;28;20231;-60
2022/03/07 14:07:23;;;;;;;10.05;9.15;;;;;;;;;;5076202;28;20390;-58
2022/03/07 14:09:53;;;;;;;9.80;9.02;;;;;;;;;;5076849;28;20262;-59
2022/03/07 14:12:30;;;;;;;11.35;10.25;;;;;;;;;;5077240;28;20216;-56
2022/03/07 14:15:01;;;;;;;10.63;8.80;;;;;;;;;;5077297;28;20435;-59
2022/03/07 14:17:27;;;;;;;11.38;10.38;;;;;;;;;;5076339;28;20327;-57
2022/03/07 14:19:55;;;;;;;10.20;9.20;;;;;;;;;;5076529;28;20460;-59
2022/03/07 14:22:22;;;;;;;10.02;9.05;;;;;;;;;;5076741;28;20211;-58
2022/03/07 14:24:49;;;;;;;11.93;10.50;;;;;;;;;;5076491;28;20208;-59
2022/03/07 14:27:15;;;;;;;12.32;10.20;;;;;;;;;;5076164;28;20214;-59
2022/03/07 14:29:43;;;;;;;11.88;9.90;;;;;;;;;;5076598;28;20481;-58